Time;durP1;ratioP1;P1;durP2;ratioP2;P2;SDS_P1;SDS_P2;PMS_P1;PMS_P2;Temp;Humidity;BMP_temperature;BMP_pressure;BME280_temperature;BME280_humidity;BME280_pressure;Samples;Min_cycle;Max_cycle;Signal;HPM_P1;HPM_P2
2023/04/22 00:01:29;;;;;;;;;;;12.80;99.90;;;;;;5093456;28;20352;-72
2023/04/22 00:03:54;;;;;;;;;;;12.70;99.90;;;;;;5093312;28;19961;-73
2023/04/22 00:06:20;;;;;;;;;;;12.60;99.90;;;;;;5093134;28;19908;-71
2023/04/22 00:08:45;;;;;;;;;;;12.70;99.90;;;;;;5093448;28;20002;-72
2023/04/22 00:11:11;;;;;;;;;;;12.60;99.90;;;;;;5093429;28;19961;-72
2023/04/22 00:13:37;;;;;;;;;;;12.40;99.90;;;;;;5093365;28;20387;-73
2023/04/22 00:16:03;;;;;;;;;;;12.30;99.90;;;;;;5093161;28;19908;-71
2023/04/22 00:18:28;;;;;;;;;;;12.50;99.90;;;;;;5093034;28;19919;-71
2023/04/22 00:20:54;;;;;;;;;;;12.50;99.90;;;;;;5093345;28;20285;-70
2023/04/22 00:23:19;;;;;;;;;;;12.50;99.90;;;;;;5093340;28;19908;-71
2023/04/22 00:25:45;;;;;;;;;;;12.50;99.90;;;;;;5093253;28;19916;-72
2023/04/22 00:28:10;;;;;;;;;;;12.50;99.90;;;;;;5074712;28;19913;-71
2023/04/22 00:30:36;;;;;;;;;;;12.30;99.90;;;;;;5093177;28;19908;-70
2023/04/22 00:33:02;;;;;;;;;;;12.20;99.90;;;;;;5093441;28;19908;-72
2023/04/22 00:35:27;;;;;;;;;;;12.10;99.90;;;;;;5093149;28;19912;-71
2023/04/22 00:37:53;;;;;;;;;;;12.10;99.90;;;;;;5092714;28;19915;-71
2023/04/22 00:40:19;;;;;;;;;;;12.00;99.90;;;;;;5092740;28;19916;-72
2023/04/22 00:42:45;;;;;;;;;;;12.10;99.90;;;;;;5093251;28;19915;-72
2023/04/22 00:45:11;;;;;;;;;;;12.20;99.90;;;;;;5093353;28;19908;-72
2023/04/22 00:47:37;;;;;;;;;;;12.20;99.90;;;;;;5096640;28;19915;-71
2023/04/22 00:50:03;;;;;;;;;;;12.10;99.90;;;;;;5097115;28;19908;-72
2023/04/22 00:52:29;;;;;;;;;;;12.00;99.90;;;;;;5096700;28;19908;-72
2023/04/22 00:54:55;;;;;;;;;;;12.00;99.90;;;;;;5096905;28;19908;-71
2023/04/22 00:57:20;;;;;;;;;;;12.00;99.90;;;;;;5096557;28;19916;-72
2023/04/22 00:59:46;;;;;;;;;;;12.10;99.90;;;;;;5096741;28;19908;-72
2023/04/22 01:02:12;;;;;;;;;;;12.10;99.90;;;;;;5096876;28;20332;-72
2023/04/22 01:04:38;;;;;;;;;;;12.20;99.90;;;;;;5096726;28;20390;-73
2023/04/22 01:07:03;;;;;;;;;;;12.50;99.90;;;;;;5096355;28;19987;-72
2023/04/22 01:09:29;;;;;;;;;;;12.50;99.90;;;;;;5096665;28;19908;-70
2023/04/22 01:11:55;;;;;;;;;;;12.50;99.90;;;;;;5096596;28;19962;-70
2023/04/22 01:14:21;;;;;;;;;;;12.50;99.90;;;;;;5096562;28;20338;-72
2023/04/22 01:16:47;;;;;;;;;;;12.30;99.90;;;;;;5096178;28;19991;-72
2023/04/22 01:19:12;;;;;;;;;;;12.10;99.90;;;;;;5096385;28;20371;-72
2023/04/22 01:21:39;;;;;;;;;;;12.10;99.90;;;;;;5096405;28;19908;-71
2023/04/22 01:24:06;;;;;;;;;;;12.00;99.90;;;;;;5096355;28;20003;-73
2023/04/22 01:26:31;;;;;;;;;;;12.20;99.90;;;;;;5096015;28;19912;-71
2023/04/22 01:28:57;;;;;;;;;;;12.30;99.90;;;;;;5078018;28;19972;-73
2023/04/22 01:31:23;;;;;;;;;;;12.30;99.90;;;;;;5096268;28;19962;-72
2023/04/22 01:33:49;;;;;;;;;;;12.40;99.90;;;;;;5096155;28;19908;-72
2023/04/22 01:36:15;;;;;;;;;;;12.40;99.90;;;;;;5096088;28;19908;-72
2023/04/22 01:38:41;;;;;;;;;;;12.40;99.90;;;;;;5095456;28;20015;-71
2023/04/22 01:41:06;;;;;;;;;;;12.60;99.90;;;;;;5095814;28;19952;-70
2023/04/22 01:43:32;;;;;;;;;;;12.60;99.90;;;;;;5096081;28;19988;-72
2023/04/22 01:45:59;;;;;;;;;;;12.60;99.90;;;;;;5095868;28;19908;-71
2023/04/22 01:48:25;;;;;;;;;;;12.60;99.90;;;;;;5095435;28;19908;-72
2023/04/22 01:50:51;;;;;;;;;;;12.50;99.90;;;;;;5095776;28;19908;-70
2023/04/22 01:53:17;;;;;;;;;;;12.50;99.90;;;;;;5095857;28;19958;-72
2023/04/22 01:55:42;;;;;;;;;;;12.50;99.90;;;;;;5095750;28;19951;-71
2023/04/22 01:58:08;;;;;;;;;;;12.40;99.90;;;;;;5094257;28;19919;-70
2023/04/22 02:00:33;;;;;;;;;;;12.40;99.90;;;;;;5095834;28;19985;-74
2023/04/22 02:02:59;;;;;;;;;;;12.50;99.90;;;;;;5095469;28;19986;-72
2023/04/22 02:05:25;;;;;;;;;;;12.40;99.90;;;;;;5095594;28;19908;-71
2023/04/22 02:07:51;;;;;;;;;;;12.50;99.90;;;;;;5083744;28;19916;-70
2023/04/22 02:10:17;;;;;;;;;;;12.40;99.90;;;;;;5075221;28;19908;-72
2023/04/22 02:12:43;;;;;;;;;;;12.40;99.90;;;;;;5075220;28;19908;-72
2023/04/22 02:15:09;;;;;;;;;;;12.40;99.90;;;;;;5075037;28;19916;-72
2023/04/22 02:17:34;;;;;;;;;;;12.40;99.90;;;;;;5056716;28;19908;-70
2023/04/22 02:20:01;;;;;;;;;;;12.40;99.90;;;;;;5074940;28;19909;-72
2023/04/22 02:22:28;;;;;;;;;;;12.40;99.90;;;;;;5074923;28;19916;-72
2023/04/22 02:24:54;;;;;;;;;;;12.40;99.90;;;;;;5074909;28;19995;-72
2023/04/22 02:27:20;;;;;;;;;;;12.40;99.90;;;;;;5074428;28;19962;-71
2023/04/22 02:29:46;;;;;;;;;;;12.50;99.90;;;;;;5074877;28;19908;-72
2023/04/22 02:32:11;;;;;;;;;;;12.30;99.90;;;;;;5074694;28;19912;-73
2023/04/22 02:34:37;;;;;;;;;;;12.30;99.90;;;;;;5074897;28;20335;-73
2023/04/22 02:37:02;;;;;;;;;;;12.30;99.90;;;;;;5074304;28;19909;-72
2023/04/22 02:39:28;;;;;;;;;;;12.00;99.90;;;;;;5074409;28;19958;-73
2023/04/22 02:41:54;;;;;;;;;;;11.90;99.90;;;;;;5074387;28;19920;-72
2023/04/22 02:44:19;;;;;;;;;;;11.90;99.90;;;;;;5074507;28;19953;-72
2023/04/22 02:46:45;;;;;;;;;;;12.00;99.90;;;;;;5074325;28;20383;-72
2023/04/22 02:49:10;;;;;;;;;;;11.90;99.90;;;;;;5056492;28;19969;-73
2023/04/22 02:51:39;;;;;;;;;;;11.70;99.90;;;;;;5074171;28;19916;-71
2023/04/22 02:54:04;;;;;;;;;;;11.80;99.90;;;;;;5074360;28;20020;-73
2023/04/22 02:56:30;;;;;;;;;;;11.90;99.90;;;;;;5056379;28;19955;-72
2023/04/22 02:58:56;;;;;;;;;;;11.80;99.90;;;;;;5073836;28;19970;-72
2023/04/22 03:01:21;;;;;;;;;;;11.80;99.90;;;;;;5056235;28;20339;-72
2023/04/22 03:03:47;;;;;;;;;;;11.80;99.90;;;;;;5074169;28;19909;-73
2023/04/22 03:06:13;;;;;;;;;;;11.80;99.90;;;;;;5074114;28;19958;-72
2023/04/22 03:08:38;;;;;;;;;;;11.80;99.90;;;;;;5073480;28;19955;-74
2023/04/22 03:11:04;;;;;;;;;;;11.80;99.90;;;;;;5056166;28;19908;-73
2023/04/22 03:13:30;;;;;;;;;;;11.80;99.90;;;;;;5073974;28;19909;-73
2023/04/22 03:15:55;;;;;;;;;;;11.80;99.90;;;;;;5073850;28;19909;-72
2023/04/22 03:18:21;;;;;;;;;;;11.80;99.90;;;;;;5073613;28;19912;-72
2023/04/22 03:20:46;;;;;;;;;;;11.90;99.90;;;;;;5074025;28;20426;-73
2023/04/22 03:23:12;;;;;;;;;;;11.90;99.90;;;;;;5073809;28;19909;-72
2023/04/22 03:25:38;;;;;;;;;;;11.90;99.90;;;;;;5073792;28;20372;-73
2023/04/22 03:28:03;;;;;;;;;;;11.80;99.90;;;;;;5073283;28;19954;-72
2023/04/22 03:30:29;;;;;;;;;;;11.80;99.90;;;;;;5073667;28;19916;-72
2023/04/22 03:32:55;;;;;;;;;;;11.80;99.90;;;;;;5073863;28;19908;-72
2023/04/22 03:35:20;;;;;;;;;;;11.80;99.90;;;;;;5073590;28;19909;-72
2023/04/22 03:37:46;;;;;;;;;;;11.70;99.90;;;;;;5073164;28;19912;-72
2023/04/22 03:40:11;;;;;;;;;;;11.80;99.90;;;;;;5073209;28;19912;-72
2023/04/22 03:42:37;;;;;;;;;;;11.80;99.90;;;;;;5073547;28;20288;-72
2023/04/22 03:45:03;;;;;;;;;;;11.80;99.90;;;;;;5073618;28;19913;-71
2023/04/22 03:47:28;;;;;;;;;;;11.90;99.90;;;;;;5073072;28;19987;-72
2023/04/22 03:49:54;;;;;;;;;;;11.90;99.90;;;;;;5073546;28;19908;-73
2023/04/22 03:52:19;;;;;;;;;;;11.90;99.90;;;;;;5073132;28;19940;-71
2023/04/22 03:54:45;;;;;;;;;;;12.00;99.90;;;;;;5073430;28;20414;-73
2023/04/22 03:57:11;;;;;;;;;;;12.00;99.90;;;;;;5073054;28;19975;-73
2023/04/22 03:59:36;;;;;;;;;;;12.00;99.90;;;;;;5073297;28;19912;-72
2023/04/22 04:02:02;;;;;;;;;;;12.00;99.90;;;;;;5073415;28;19948;-72
2023/04/22 04:04:31;;;;;;;;;;;11.90;99.90;;;;;;5072975;28;20372;-72
2023/04/22 04:06:57;;;;;;;;;;;11.80;99.90;;;;;;5073280;28;20396;-72
2023/04/22 04:09:23;;;;;;;;;;;11.80;99.90;;;;;;5073294;28;20269;-71
2023/04/22 04:11:49;;;;;;;;;;;11.80;99.90;;;;;;5073288;28;20000;-71
2023/04/22 04:14:14;;;;;;;;;;;11.90;99.90;;;;;;5073220;28;19909;-72
2023/04/22 04:16:40;;;;;;;;;;;11.90;99.90;;;;;;5073066;28;19908;-71
2023/04/22 04:19:05;;;;;;;;;;;11.80;99.90;;;;;;5072636;28;20301;-73
2023/04/22 04:21:32;;;;;;;;;;;11.80;99.90;;;;;;5075508;28;20369;-72
2023/04/22 04:23:58;;;;;;;;;;;11.70;99.90;;;;;;5077229;28;19951;-73
2023/04/22 04:26:24;;;;;;;;;;;11.80;99.90;;;;;;5077158;28;19951;-72
2023/04/22 04:28:49;;;;;;;;;;;11.70;99.90;;;;;;5058623;28;20350;-72
2023/04/22 04:31:15;;;;;;;;;;;11.70;99.90;;;;;;5077195;28;20343;-73
2023/04/22 04:33:41;;;;;;;;;;;11.80;99.90;;;;;;5077044;28;19915;-72
2023/04/22 04:36:09;;;;;;;;;;;11.70;99.90;;;;;;5076982;28;19909;-71
2023/04/22 04:38:35;;;;;;;;;;;11.70;99.90;;;;;;5076374;28;19919;-72
2023/04/22 04:41:00;;;;;;;;;;;11.70;99.90;;;;;;5076597;28;20377;-71
2023/04/22 04:43:28;;;;;;;;;;;11.70;99.90;;;;;;5076899;28;19912;-71
2023/04/22 04:45:53;;;;;;;;;;;11.70;99.90;;;;;;5076882;28;19917;-72
2023/04/22 04:48:19;;;;;;;;;;;11.70;99.90;;;;;;5076391;28;19909;-73
2023/04/22 04:50:45;;;;;;;;;;;11.70;99.90;;;;;;5076564;28;19962;-72
2023/04/22 04:53:10;;;;;;;;;;;11.60;99.90;;;;;;5076831;28;19908;-71
2023/04/22 04:55:36;;;;;;;;;;;11.60;99.90;;;;;;5076621;28;19909;-71
2023/04/22 04:58:03;;;;;;;;;;;11.60;99.90;;;;;;5075972;28;19923;-71
2023/04/22 05:00:28;;;;;;;;;;;11.50;99.90;;;;;;5076527;28;20372;-71
2023/04/22 05:02:54;;;;;;;;;;;11.60;99.90;;;;;;5076393;28;19962;-71
2023/04/22 05:05:19;;;;;;;;;;;11.60;99.90;;;;;;5076613;28;19962;-71
2023/04/22 05:07:45;;;;;;;;;;;11.50;99.90;;;;;;5076045;28;19908;-72
2023/04/22 05:10:11;;;;;;;;;;;11.50;99.90;;;;;;5076383;28;19915;-72
2023/04/22 05:12:36;;;;;;;;;;;11.50;99.90;;;;;;5076371;28;19916;-72
2023/04/22 05:15:02;;;;;;;;;;;11.70;99.90;;;;;;5076075;28;19919;-72
2023/04/22 05:17:27;;;;;;;;;;;11.70;99.90;;;;;;5075985;28;19912;-72
2023/04/22 05:19:53;;;;;;;;;;;11.60;99.90;;;;;;5058181;28;20280;-71
2023/04/22 05:22:19;;;;;;;;;;;11.60;99.90;;;;;;5076294;28;19915;-72
2023/04/22 05:24:45;;;;;;;;;;;11.60;99.90;;;;;;5076090;28;19912;-72
2023/04/22 05:27:10;;;;;;;;;;;11.60;99.90;;;;;;5075954;28;19908;-71
2023/04/22 05:29:36;;;;;;;;;;;11.50;99.90;;;;;;5075527;28;19908;-71
2023/04/22 05:32:02;;;;;;;;;;;11.50;99.90;;;;;;5074694;28;19913;-72
2023/04/22 05:34:27;;;;;;;;;;;11.50;99.90;;;;;;5075930;28;19942;-73
2023/04/22 05:36:53;;;;;;;;;;;11.60;99.90;;;;;;5075886;28;19917;-73
2023/04/22 05:39:19;;;;;;;;;;;11.70;99.90;;;;;;5075288;28;19920;-72
2023/04/22 05:41:45;;;;;;;;;;;11.80;99.90;;;;;;5075643;28;19920;-70
2023/04/22 05:44:10;;;;;;;;;;;11.70;99.90;;;;;;5075765;28;19958;-71
2023/04/22 05:46:36;;;;;;;;;;;11.70;99.90;;;;;;5075883;28;19931;-72
2023/04/22 05:49:01;;;;;;;;;;;11.70;99.90;;;;;;5075473;28;19992;-72
2023/04/22 05:51:27;;;;;;;;;;;11.70;99.90;;;;;;5057565;28;19920;-71
2023/04/22 05:53:52;;;;;;;;;;;11.70;99.90;;;;;;5075596;28;19951;-72
2023/04/22 05:56:19;;;;;;;;;;;11.80;99.90;;;;;;5075555;28;19962;-71
2023/04/22 05:58:45;;;;;;;;;;;11.80;99.90;;;;;;5056939;28;19920;-72
2023/04/22 06:01:11;;;;;;;;;;;11.80;99.90;;;;;;5075382;28;19908;-72
2023/04/22 06:03:36;;;;;;;;;;;11.90;99.90;;;;;;5075294;28;20364;-71
2023/04/22 06:06:02;;;;;;;;;;;11.60;99.90;;;;;;5057306;28;20373;-73
2023/04/22 06:08:28;;;;;;;;;;;11.50;99.90;;;;;;5074972;28;19919;-72
2023/04/22 06:10:54;;;;;;;;;;;11.70;99.90;;;;;;5075305;28;19916;-73
2023/04/22 06:13:20;;;;;;;;;;;11.50;99.90;;;;;;5075180;28;19909;-72
2023/04/22 06:15:45;;;;;;;;;;;11.10;99.90;;;;;;5074991;28;19909;-71
2023/04/22 06:18:11;;;;;;;;;;;11.30;99.90;;;;;;5074654;28;19959;-71
2023/04/22 06:20:36;;;;;;;;;;;11.50;99.90;;;;;;5075248;28;20012;-72
2023/04/22 06:23:04;;;;;;;;;;;11.50;99.90;;;;;;5075031;28;19913;-71
2023/04/22 06:25:30;;;;;;;;;;;11.60;99.90;;;;;;5074980;28;20401;-71
2023/04/22 06:27:55;;;;;;;;;;;11.80;99.90;;;;;;5074430;28;19909;-72
2023/04/22 06:30:21;;;;;;;;;;;11.70;99.90;;;;;;5056852;28;19909;-71
2023/04/22 06:32:46;;;;;;;;;;;11.80;99.90;;;;;;5074821;28;19944;-72
2023/04/22 06:35:12;;;;;;;;;;;11.80;99.90;;;;;;5074841;28;19920;-71
2023/04/22 06:37:37;;;;;;;;;;;12.00;99.90;;;;;;5074376;28;19963;-71
2023/04/22 06:40:03;;;;;;;;;;;12.00;99.90;;;;;;5074179;28;19908;-72
2023/04/22 06:42:29;;;;;;;;;;;12.20;99.90;;;;;;5074661;28;19915;-72
2023/04/22 06:44:54;;;;;;;;;;;12.50;99.90;;;;;;5074234;28;19908;-74
2023/04/22 06:47:20;;;;;;;;;;;12.50;99.90;;;;;;5074522;28;19909;-71
2023/04/22 06:49:45;;;;;;;;;;;12.20;99.90;;;;;;5073997;28;19947;-72
2023/04/22 06:52:11;;;;;;;;;;;12.00;99.90;;;;;;5074119;28;19915;-72
2023/04/22 06:54:37;;;;;;;;;;;12.00;99.90;;;;;;5074387;28;19950;-72
2023/04/22 06:57:02;;;;;;;;;;;12.00;99.90;;;;;;5074389;28;19913;-72
2023/04/22 06:59:28;;;;;;;;;;;11.80;99.90;;;;;;5073939;28;19916;-71
2023/04/22 07:01:54;;;;;;;;;;;11.70;99.90;;;;;;5074369;28;19908;-72
2023/04/22 07:04:19;;;;;;;;;;;11.60;99.90;;;;;;5073691;28;19916;-72
2023/04/22 07:06:45;;;;;;;;;;;11.60;99.90;;;;;;5074177;28;20409;-72
2023/04/22 07:09:11;;;;;;;;;;;11.80;99.90;;;;;;5073656;28;19915;-73
2023/04/22 07:11:36;;;;;;;;;;;12.10;99.90;;;;;;5074080;28;20293;-73
2023/04/22 07:14:02;;;;;;;;;;;12.50;99.90;;;;;;5074007;28;19913;-72
2023/04/22 07:16:27;;;;;;;;;;;12.90;99.90;;;;;;5073639;28;19958;-72
2023/04/22 07:18:53;;;;;;;;;;;13.20;99.90;;;;;;5073505;28;19916;-73
2023/04/22 07:21:19;;;;;;;;;;;13.40;99.90;;;;;;5073808;28;19908;-72
2023/04/22 07:23:44;;;;;;;;;;;13.50;99.90;;;;;;5073831;28;19916;-71
2023/04/22 07:26:10;;;;;;;;;;;13.80;99.90;;;;;;5073789;28;19909;-72
2023/04/22 07:28:36;;;;;;;;;;;13.70;99.90;;;;;;5073779;28;19913;-73
2023/04/22 07:31:02;;;;;;;;;;;13.70;99.90;;;;;;5073839;28;19913;-72
2023/04/22 07:33:28;;;;;;;;;;;14.00;99.90;;;;;;5074126;28;19917;-72
2023/04/22 07:35:53;;;;;;;;;;;14.00;99.90;;;;;;5074373;28;19951;-72
2023/04/22 07:38:19;;;;;;;;;;;14.20;99.90;;;;;;5073823;28;19912;-71
2023/04/22 07:40:44;;;;;;;;;;;14.60;99.90;;;;;;5074045;28;19920;-72
2023/04/22 07:43:10;;;;;;;;;;;14.80;99.90;;;;;;5074273;28;20281;-72
2023/04/22 07:45:36;;;;;;;;;;;15.00;99.90;;;;;;5074110;28;19953;-72
2023/04/22 07:48:01;;;;;;;;;;;15.10;99.90;;;;;;5073509;28;19913;-73
2023/04/22 07:50:27;;;;;;;;;;;15.10;99.90;;;;;;5073640;28;19916;-70
2023/04/22 07:52:52;;;;;;;;;;;15.00;99.90;;;;;;5073883;28;19908;-71
2023/04/22 07:55:18;;;;;;;;;;;15.00;99.90;;;;;;5073283;28;20376;-73
2023/04/22 07:57:44;;;;;;;;;;;14.70;99.90;;;;;;5073898;28;19908;-72
2023/04/22 08:00:10;;;;;;;;;;;14.40;99.90;;;;;;5073356;28;19931;-72
2023/04/22 08:02:36;;;;;;;;;;;14.10;99.90;;;;;;5073883;28;20388;-71
2023/04/22 08:05:01;;;;;;;;;;;13.70;99.90;;;;;;5073994;28;19908;-73
2023/04/22 08:07:27;;;;;;;;;;;13.60;99.90;;;;;;5073802;28;19908;-72
2023/04/22 08:09:54;;;;;;;;;;;13.50;99.90;;;;;;5073508;28;19916;-72
2023/04/22 08:12:20;;;;;;;;;;;13.40;99.90;;;;;;5073799;28;19908;-72
2023/04/22 08:14:45;;;;;;;;;;;13.50;99.90;;;;;;5073749;28;19909;-71
2023/04/22 08:17:11;;;;;;;;;;;14.00;99.90;;;;;;5073987;28;19909;-72
2023/04/22 08:19:37;;;;;;;;;;;14.00;99.90;;;;;;5073297;28;19912;-72
2023/04/22 08:22:02;;;;;;;;;;;14.20;99.90;;;;;;5073663;28;19913;-72
2023/04/22 08:24:28;;;;;;;;;;;14.60;99.90;;;;;;5073698;28;20377;-72
2023/04/22 08:26:53;;;;;;;;;;;15.00;99.90;;;;;;5073761;28;20279;-73
2023/04/22 08:29:19;;;;;;;;;;;15.10;99.90;;;;;;5073178;28;19909;-72
2023/04/22 08:31:44;;;;;;;;;;;15.40;99.90;;;;;;5073512;28;19920;-72
2023/04/22 08:34:10;;;;;;;;;;;15.90;99.90;;;;;;5073824;28;19915;-72
2023/04/22 08:36:36;;;;;;;;;;;16.60;99.90;;;;;;5073718;28;19908;-73
2023/04/22 08:39:01;;;;;;;;;;;16.60;99.90;;;;;;5072949;28;20053;-72
2023/04/22 08:41:27;;;;;;;;;;;16.90;99.90;;;;;;5052079;28;19928;-73
2023/04/22 08:43:52;;;;;;;;;;;17.60;99.90;;;;;;5053665;28;19915;-73
2023/04/22 08:46:22;;;;;;;;;;;21.10;99.90;;;;;;5053723;28;19909;-71
2023/04/22 08:48:49;;;;;;;;;;;21.30;99.90;;;;;;5052946;28;19961;-72
2023/04/22 08:51:17;;;;;;;;;;;21.60;99.90;;;;;;5052056;28;20140;-74
2023/04/22 08:53:43;;;;;;;;;;;20.50;99.90;;;;;;5053563;28;19909;-75
2023/04/22 08:56:10;;;;;;;;;;;20.80;99.90;;;;;;5053364;28;19909;-72
2023/04/22 08:58:36;;;;;;;;;;;20.90;99.90;;;;;;5053158;28;19982;-72
2023/04/22 09:01:01;;;;;;;;;;;21.00;99.90;;;;;;5053199;28;20401;-72
2023/04/22 09:03:28;;;;;;;;;;;22.40;99.90;;;;;;5053471;28;20416;-74
2023/04/22 09:05:54;;;;;;;;;;;25.30;99.90;;;;;;5053507;28;20318;-75
2023/04/22 09:08:20;;;;;;;;;;;26.50;99.90;;;;;;5056242;28;19952;-74
2023/04/22 09:10:45;;;;;;;;;;;25.40;99.90;;;;;;5056647;28;20289;-74
2023/04/22 09:13:12;;;;;;;;;;;25.10;99.90;;;;;;5056868;28;19909;-74
2023/04/22 09:15:37;;;;;;;;;;;24.60;99.90;;;;;;5056618;28;20354;-73
2023/04/22 09:18:04;;;;;;;;;;;29.10;99.90;;;;;;5056760;28;19952;-72
2023/04/22 09:20:30;;;;;;;;;;;29.10;99.90;;;;;;5056617;28;19939;-72
2023/04/22 09:22:56;;;;;;;;;;;27.10;99.90;;;;;;5056789;28;19909;-73
2023/04/22 09:25:23;;;;;;;;;;;26.60;99.90;;;;;;5056739;28;19913;-73
2023/04/22 09:27:49;;;;;;;;;;;25.20;99.90;;;;;;5056558;28;20365;-72
2023/04/22 09:30:17;;;;;;;;;;;22.50;99.90;;;;;;5056526;28;19909;-72
2023/04/22 09:32:50;;;;;;;;;;;20.60;99.90;;;;;;5056754;28;20296;-71
2023/04/22 09:35:21;;;;;;;;;;;22.80;99.90;;;;;;5056503;28;19916;-74
2023/04/22 09:37:50;;;;;;;;;;;25.00;99.90;;;;;;5055089;28;19983;-73
2023/04/22 09:40:17;;;;;;;;;;;24.40;99.90;;;;;;5058343;28;19909;-72
2023/04/22 09:42:50;;;;;;;;;;;24.80;99.90;;;;;;5076481;28;19916;-73
2023/04/22 09:45:45;;;;;;;;;;;27.80;99.90;;;;;;5076205;28;19913;-73
2023/04/22 09:48:11;;;;;;;;;;;25.00;99.90;;;;;;5049176;28;19908;-72
2023/04/22 09:50:38;;;;;;;;;;;21.90;99.90;;;;;;5075688;28;19909;-73
2023/04/22 09:53:05;;;;;;;;;;;22.10;99.90;;;;;;5076160;28;19908;-74
2023/04/22 09:55:32;;;;;;;;;;;23.60;99.90;;;;;;5076162;28;20385;-73
2023/04/22 09:58:03;;;;;;;;;;;23.60;99.90;;;;;;5075881;28;20355;-74
2023/04/22 10:00:29;;;;;;;;;;;24.00;99.90;;;;;;5075789;28;19913;-73
2023/04/22 10:02:55;;;;;;;;;;;26.10;99.90;;;;;;5058157;28;19987;-76
2023/04/22 10:05:20;;;;;;;;;;;28.90;99.90;;;;;;5075922;28;20309;-73
2023/04/22 10:07:46;;;;;;;;;;;28.30;99.90;;;;;;5059320;28;19913;-72
2023/04/22 10:10:12;;;;;;;;;;;23.30;99.90;;;;;;5073433;28;19924;-73
2023/04/22 10:12:38;;;;;;;;;;;27.90;99.90;;;;;;5095763;28;19957;-74
2023/04/22 10:15:05;;;;;;;;;;;31.40;99.90;;;;;;5095944;28;20293;-74
2023/04/22 10:17:32;;;;;;;;;;;30.70;99.90;;;;;;5096059;28;20268;-74
2023/04/22 10:20:02;;;;;;;;;;;33.20;99.90;;;;;;5076424;28;20018;-74
2023/04/22 10:22:28;;;;;;;;;;;32.40;99.90;;;;;;5095609;28;19912;-74
2023/04/22 10:24:56;;;;;;;;;;;34.90;99.90;;;;;;5089711;28;20394;-74
2023/04/22 10:27:22;;;;;;;;;;;34.20;99.90;;;;;;5095582;28;19923;-73
2023/04/22 10:29:48;;;;;;;;;;;30.50;99.90;;;;;;5095484;28;19908;-74
2023/04/22 10:32:16;;;;;;;;;;;31.60;99.90;;;;;;5095477;28;19908;-74
2023/04/22 10:34:42;;;;;;;;;;;33.00;99.90;;;;;;5095247;28;19999;-73
2023/04/22 10:37:10;;;;;;;;;;;31.80;99.90;;;;;;5093642;28;19916;-75
2023/04/22 10:39:37;;;;;;;;;;;33.80;99.90;;;;;;5093879;28;19959;-74
2023/04/22 10:42:03;;;;;;;;;;;34.90;99.90;;;;;;5075608;28;20015;-73
2023/04/22 10:44:43;;;;;;;;;;;35.20;99.90;;;;;;5095216;28;19912;-73
2023/04/22 10:47:09;;;;;;;;;;;34.70;99.90;;;;;;5095227;28;19908;-74
2023/04/22 10:49:34;;;;;;;;;;;33.80;99.90;;;;;;5095066;28;19919;-75
2023/04/22 10:52:02;;;;;;;;;;;32.70;99.90;;;;;;5094928;28;20341;-74
2023/04/22 10:54:28;;;;;;;;;;;31.30;99.90;;;;;;5093109;28;19915;-74
2023/04/22 10:57:03;;;;;;;;;;;29.10;99.90;;;;;;5093083;28;19908;-74
2023/04/22 10:59:29;;;;;;;;;;;30.70;99.90;;;;;;5093266;28;20333;-74
2023/04/22 11:02:04;;;;;;;;;;;31.70;99.90;;;;;;5094128;28;19988;-74
2023/04/22 11:04:30;;;;;;;;;;;30.40;99.90;;;;;;5075922;28;19908;-74
2023/04/22 11:07:34;;;;;;;;;;;26.40;99.90;;;;;;5094353;28;19914;-73
2023/04/22 11:10:05;;;;;;;;;;;26.50;99.90;;;;;;5094924;28;19912;-72
2023/04/22 11:12:34;;;;;;;;;;;25.70;99.90;;;;;;5076263;28;19908;-73
2023/04/22 11:15:10;;;;;;;;;;;25.70;99.90;;;;;;5094881;28;19995;-73
2023/04/22 11:17:36;;;;;;;;;;;28.30;99.90;;;;;;5094765;28;19908;-73
2023/04/22 11:20:03;;;;;;;;;;;30.40;99.90;;;;;;5094675;28;20346;-73
2023/04/22 11:22:33;;;;;;;;;;;29.60;99.90;;;;;;5094550;28;19908;-75
2023/04/22 11:24:59;;;;;;;;;;;31.10;99.90;;;;;;5094862;28;19909;-74
2023/04/22 11:27:26;;;;;;;;;;;31.60;99.90;;;;;;5094428;28;19908;-75
2023/04/22 11:30:11;;;;;;;;;;;32.30;99.90;;;;;;5094222;28;19919;-74
2023/04/22 11:32:37;;;;;;;;;;;30.50;99.90;;;;;;5076153;28;19912;-73
2023/04/22 11:35:04;;;;;;;;;;;27.90;99.90;;;;;;5094284;28;19908;-73
2023/04/22 11:37:30;;;;;;;;;;;23.70;99.90;;;;;;5094122;28;20391;-73
2023/04/22 11:39:59;;;;;;;;;;;21.40;99.90;;;;;;5094147;28;19908;-73
2023/04/22 11:42:24;;;;;;;;;;;20.40;99.90;;;;;;5094407;28;19927;-72
2023/04/22 11:44:50;;;;;;;;;;;20.10;99.90;;;;;;5094272;28;19909;-72
2023/04/22 11:47:16;;;;;;;;;;;20.80;99.90;;;;;;5094280;28;19908;-74
2023/04/22 11:49:53;;;;;;;;;;;22.10;99.90;;;;;;5094006;28;19923;-72
2023/04/22 11:52:19;;;;;;;;;;;25.50;99.90;;;;;;5094088;28;19908;-74
2023/04/22 11:54:45;;;;;;;;;;;30.70;99.90;;;;;;5075907;28;19914;-74
2023/04/22 11:57:14;;;;;;;;;;;33.60;99.90;;;;;;5093866;28;19915;-74
2023/04/22 11:59:40;;;;;;;;;;;33.80;99.90;;;;;;5075853;28;19991;-72
2023/04/22 12:02:06;;;;;;;;;;;28.50;99.90;;;;;;5093863;28;19915;-72
2023/04/22 12:04:36;;;;;;;;;;;24.30;99.90;;;;;;5093896;28;20288;-72
2023/04/22 12:07:02;;;;;;;;;;;21.90;99.90;;;;;;5094097;28;19931;-73
2023/04/22 12:09:28;;;;;;;;;;;21.00;99.90;;;;;;5075487;28;19959;-73
2023/04/22 12:11:54;;;;;;;;;;;20.40;99.90;;;;;;5093966;28;19946;-71
2023/04/22 12:14:19;;;;;;;;;;;20.10;99.90;;;;;;5093809;28;19908;-72
2023/04/22 12:16:45;;;;;;;;;;;19.90;99.90;;;;;;5094006;28;20252;-73
2023/04/22 12:19:10;;;;;;;;;;;20.40;99.90;;;;;;5093987;28;20014;-72
2023/04/22 12:21:36;;;;;;;;;;;20.20;99.90;;;;;;5093702;28;19909;-71
2023/04/22 12:24:06;;;;;;;;;;;20.10;99.90;;;;;;5075515;28;19912;-73
2023/04/22 12:26:32;;;;;;;;;;;20.60;99.90;;;;;;5093709;28;19951;-72
2023/04/22 12:28:58;;;;;;;;;;;23.20;99.90;;;;;;5093542;28;19960;-72
2023/04/22 12:31:24;;;;;;;;;;;22.30;99.90;;;;;;5093577;28;20382;-71
2023/04/22 12:33:50;;;;;;;;;;;21.50;99.90;;;;;;5075503;28;19999;-73
2023/04/22 12:36:16;;;;;;;;;;;20.60;99.90;;;;;;5075487;28;19931;-73
2023/04/22 12:38:42;;;;;;;;;;;20.60;99.90;;;;;;5093604;28;19956;-73
2023/04/22 12:41:08;;;;;;;;;;;20.50;99.90;;;;;;5093573;28;19920;-73
2023/04/22 12:43:38;;;;;;;;;;;20.90;99.90;;;;;;5079338;28;20003;-73
2023/04/22 12:46:07;;;;;;;;;;;23.70;99.90;;;;;;5097611;28;19908;-74
2023/04/22 12:48:34;;;;;;;;;;;23.30;99.90;;;;;;5097338;28;19916;-73
2023/04/22 12:51:00;;;;;;;;;;;25.30;99.90;;;;;;5079183;28;19915;-74
2023/04/22 12:53:26;;;;;;;;;;;23.90;99.90;;;;;;5097556;28;19908;-72
2023/04/22 12:55:51;;;;;;;;;;;22.50;99.90;;;;;;5097360;28;20372;-72
2023/04/22 12:58:17;;;;;;;;;;;21.30;99.90;;;;;;5097313;28;19908;-72
2023/04/22 13:00:43;;;;;;;;;;;20.60;99.90;;;;;;5097286;28;20387;-73
2023/04/22 13:03:08;;;;;;;;;;;20.00;99.90;;;;;;5097581;28;19908;-72
2023/04/22 13:05:34;;;;;;;;;;;20.00;99.90;;;;;;5097432;28;19998;-72
2023/04/22 13:07:59;;;;;;;;;;;20.50;99.90;;;;;;5097052;28;19916;-73
2023/04/22 13:10:27;;;;;;;;;;;23.90;99.90;;;;;;5097098;28;19998;-73
2023/04/22 13:12:53;;;;;;;;;;;27.30;99.90;;;;;;5096937;28;19977;-71
2023/04/22 13:15:19;;;;;;;;;;;28.10;99.90;;;;;;5097065;28;20364;-73
2023/04/22 13:17:44;;;;;;;;;;;28.50;99.90;;;;;;5096921;28;19943;-73
2023/04/22 13:20:12;;;;;;;;;;;26.80;99.90;;;;;;5096901;28;19960;-74
2023/04/22 13:22:39;;;;;;;;;;;23.80;99.90;;;;;;5078679;28;19914;-73
2023/04/22 13:25:05;;;;;;;;;;;23.20;99.90;;;;;;5096712;28;19946;-73
2023/04/22 13:27:31;;;;;;;;;;;22.30;99.90;;;;;;5096900;28;19958;-72
2023/04/22 13:29:57;;;;;;;;;;;21.70;99.90;;;;;;5096672;28;20377;-72
2023/04/22 13:32:22;;;;;;;;;;;21.40;99.90;;;;;;5096652;28;19939;-72
2023/04/22 13:34:48;;;;;;;;;;;21.00;99.90;;;;;;5096562;28;20394;-72
2023/04/22 13:37:15;;;;;;;;;;;20.20;99.90;;;;;;5096531;28;19909;-72
2023/04/22 13:39:40;;;;;;;;;;;20.10;99.90;;;;;;5096565;28;19908;-72
2023/04/22 13:42:06;;;;;;;;;;;19.60;99.90;;;;;;5096025;28;20007;-72
2023/04/22 13:44:32;;;;;;;;;;;19.40;99.90;;;;;;5096819;28;19908;-73
2023/04/22 13:46:57;;;;;;;;;;;19.10;99.90;;;;;;5096672;28;19908;-72
2023/04/22 13:49:24;;;;;;;;;;;19.20;99.90;;;;;;5096447;28;19912;-73
2023/04/22 13:51:50;;;;;;;;;;;20.00;99.90;;;;;;5096241;28;19908;-72
2023/04/22 13:54:16;;;;;;;;;;;21.60;99.90;;;;;;5095464;28;19915;-72
2023/04/22 13:56:41;;;;;;;;;;;20.80;99.90;;;;;;5096162;28;19908;-72
2023/04/22 13:59:07;;;;;;;;;;;20.20;99.90;;;;;;5096091;28;19912;-72
2023/04/22 14:01:33;;;;;;;;;;;20.60;99.90;;;;;;5096095;28;20260;-72
2023/04/22 14:03:58;;;;;;;;;;;19.80;99.90;;;;;;5077902;28;19909;-72
2023/04/22 14:06:24;;;;;;;;;;;18.80;99.90;;;;;;5095985;28;19914;-73
2023/04/22 14:08:50;;;;;;;;;;;18.10;99.90;;;;;;5096148;28;19912;-72
2023/04/22 14:11:15;;;;;;;;;;;17.20;99.90;;;;;;5095915;28;19955;-72